sensor_id;sensor_type;location;lat;lon;timestamp;temperature;humidity
15450;DHT22;7826;49.784;9.934;2023-05-07T00:02:05;8.80;99.90
15450;DHT22;7826;49.784;9.934;2023-05-07T00:04:32;8.70;99.90
15450;DHT22;7826;49.784;9.934;2023-05-07T00:07:03;8.70;99.90
15450;DHT22;7826;49.784;9.934;2023-05-07T00:09:30;8.70;99.90
15450;DHT22;7826;49.784;9.934;2023-05-07T00:11:56;8.80;99.90
15450;DHT22;7826;49.784;9.934;2023-05-07T00:14:23;8.80;99.90
15450;DHT22;7826;49.784;9.934;2023-05-07T00:16:49;8.80;99.90
15450;DHT22;7826;49.784;9.934;2023-05-07T00:19:15;8.60;99.90
15450;DHT22;7826;49.784;9.934;2023-05-07T00:21:42;8.70;99.90
15450;DHT22;7826;49.784;9.934;2023-05-07T00:24:08;8.70;99.90
15450;DHT22;7826;49.784;9.934;2023-05-07T00:26:35;8.70;99.90
15450;DHT22;7826;49.784;9.934;2023-05-07T00:29:01;8.70;99.90
15450;DHT22;7826;49.784;9.934;2023-05-07T00:31:27;8.60;99.90
15450;DHT22;7826;49.784;9.934;2023-05-07T00:33:53;8.60;99.90
15450;DHT22;7826;49.784;9.934;2023-05-07T00:36:20;8.70;99.90
15450;DHT22;7826;49.784;9.934;2023-05-07T00:38:46;8.70;99.90
15450;DHT22;7826;49.784;9.934;2023-05-07T00:41:12;8.70;99.90
15450;DHT22;7826;49.784;9.934;2023-05-07T00:43:38;8.70;99.90
15450;DHT22;7826;49.784;9.934;2023-05-07T00:46:05;8.80;99.90
15450;DHT22;7826;49.784;9.934;2023-05-07T00:48:32;8.70;99.90
15450;DHT22;7826;49.784;9.934;2023-05-07T00:50:58;8.70;99.90
15450;DHT22;7826;49.784;9.934;2023-05-07T00:53:25;8.80;99.90
15450;DHT22;7826;49.784;9.934;2023-05-07T00:55:52;8.90;99.90
15450;DHT22;7826;49.784;9.934;2023-05-07T00:58:19;8.90;99.90
15450;DHT22;7826;49.784;9.934;2023-05-07T01:00:47;8.70;99.90
15450;DHT22;7826;49.784;9.934;2023-05-07T01:03:13;8.80;99.90
15450;DHT22;7826;49.784;9.934;2023-05-07T01:05:40;8.80;99.90
15450;DHT22;7826;49.784;9.934;2023-05-07T01:08:06;8.80;99.90
15450;DHT22;7826;49.784;9.934;2023-05-07T01:10:33;8.80;99.90
15450;DHT22;7826;49.784;9.934;2023-05-07T01:12:59;8.80;99.90
15450;DHT22;7826;49.784;9.934;2023-05-07T01:15:26;8.80;99.90
15450;DHT22;7826;49.784;9.934;2023-05-07T01:17:53;8.80;99.90
15450;DHT22;7826;49.784;9.934;2023-05-07T01:20:19;8.80;99.90
15450;DHT22;7826;49.784;9.934;2023-05-07T01:22:46;8.70;99.90
15450;DHT22;7826;49.784;9.934;2023-05-07T01:25:12;8.70;99.90
15450;DHT22;7826;49.784;9.934;2023-05-07T01:27:39;8.80;99.90
15450;DHT22;7826;49.784;9.934;2023-05-07T01:30:07;8.70;99.90
15450;DHT22;7826;49.784;9.934;2023-05-07T01:32:43;8.70;99.90
15450;DHT22;7826;49.784;9.934;2023-05-07T01:35:12;8.80;99.90
15450;DHT22;7826;49.784;9.934;2023-05-07T01:37:40;8.80;99.90
15450;DHT22;7826;49.784;9.934;2023-05-07T01:40:07;8.80;99.90
15450;DHT22;7826;49.784;9.934;2023-05-07T01:42:34;8.80;99.90
15450;DHT22;7826;49.784;9.934;2023-05-07T01:45:00;8.70;99.90
15450;DHT22;7826;49.784;9.934;2023-05-07T01:47:26;8.70;99.90
15450;DHT22;7826;49.784;9.934;2023-05-07T01:49:53;8.70;99.90
15450;DHT22;7826;49.784;9.934;2023-05-07T01:52:19;8.70;99.90
15450;DHT22;7826;49.784;9.934;2023-05-07T01:54:45;8.60;99.90
15450;DHT22;7826;49.784;9.934;2023-05-07T01:57:12;8.70;99.90
15450;DHT22;7826;49.784;9.934;2023-05-07T01:59:38;8.70;99.90
15450;DHT22;7826;49.784;9.934;2023-05-07T02:02:04;8.70;99.90
15450;DHT22;7826;49.784;9.934;2023-05-07T02:04:30;8.60;99.90
15450;DHT22;7826;49.784;9.934;2023-05-07T02:06:57;8.60;99.90
15450;DHT22;7826;49.784;9.934;2023-05-07T02:09:22;8.60;99.90
15450;DHT22;7826;49.784;9.934;2023-05-07T02:11:49;8.60;99.90
15450;DHT22;7826;49.784;9.934;2023-05-07T02:14:15;8.60;99.90
15450;DHT22;7826;49.784;9.934;2023-05-07T02:16:42;8.70;99.90
15450;DHT22;7826;49.784;9.934;2023-05-07T02:19:08;8.60;99.90
15450;DHT22;7826;49.784;9.934;2023-05-07T02:21:34;8.70;99.90
15450;DHT22;7826;49.784;9.934;2023-05-07T02:24:00;8.70;99.90
15450;DHT22;7826;49.784;9.934;2023-05-07T02:26:27;8.60;99.90
15450;DHT22;7826;49.784;9.934;2023-05-07T02:28:53;8.70;99.90
15450;DHT22;7826;49.784;9.934;2023-05-07T02:31:19;8.70;99.90
15450;DHT22;7826;49.784;9.934;2023-05-07T02:33:46;8.60;99.90
15450;DHT22;7826;49.784;9.934;2023-05-07T02:36:12;8.70;94.60
15450;DHT22;7826;49.784;9.934;2023-05-07T02:38:38;8.80;83.60
15450;DHT22;7826;49.784;9.934;2023-05-07T02:41:05;8.80;67.00
15450;DHT22;7826;49.784;9.934;2023-05-07T02:43:31;8.80;26.40
15450;DHT22;7826;49.784;9.934;2023-05-07T02:46:04;8.80;99.90
15450;DHT22;7826;49.784;9.934;2023-05-07T02:48:31;8.70;99.90
15450;DHT22;7826;49.784;9.934;2023-05-07T02:50:58;8.70;53.10
15450;DHT22;7826;49.784;9.934;2023-05-07T02:53:25;8.70;99.90
15450;DHT22;7826;49.784;9.934;2023-05-07T02:55:56;8.70;99.90
15450;DHT22;7826;49.784;9.934;2023-05-07T02:58:23;8.70;79.50
15450;DHT22;7826;49.784;9.934;2023-05-07T03:00:49;8.70;99.90
15450;DHT22;7826;49.784;9.934;2023-05-07T03:03:16;8.70;99.90
15450;DHT22;7826;49.784;9.934;2023-05-07T03:05:43;8.80;55.00
15450;DHT22;7826;49.784;9.934;2023-05-07T03:08:09;8.80;38.00
15450;DHT22;7826;49.784;9.934;2023-05-07T03:10:36;8.80;66.90
15450;DHT22;7826;49.784;9.934;2023-05-07T03:13:03;8.80;1.00
15450;DHT22;7826;49.784;9.934;2023-05-07T03:15:29;8.70;50.60
15450;DHT22;7826;49.784;9.934;2023-05-07T03:17:56;8.70;99.10
15450;DHT22;7826;49.784;9.934;2023-05-07T03:20:22;8.60;90.10
15450;DHT22;7826;49.784;9.934;2023-05-07T03:22:49;8.60;55.20
15450;DHT22;7826;49.784;9.934;2023-05-07T03:25:15;8.60;95.60
15450;DHT22;7826;49.784;9.934;2023-05-07T03:27:41;8.60;7.60
15450;DHT22;7826;49.784;9.934;2023-05-07T03:30:11;8.60;1.00
15450;DHT22;7826;49.784;9.934;2023-05-07T03:32:37;8.70;1.00
15450;DHT22;7826;49.784;9.934;2023-05-07T03:35:04;8.50;1.00
15450;DHT22;7826;49.784;9.934;2023-05-07T03:37:30;8.50;1.00
15450;DHT22;7826;49.784;9.934;2023-05-07T03:39:57;8.50;1.00
15450;DHT22;7826;49.784;9.934;2023-05-07T03:42:23;8.60;1.00
15450;DHT22;7826;49.784;9.934;2023-05-07T03:44:49;8.50;1.00
15450;DHT22;7826;49.784;9.934;2023-05-07T03:47:15;8.60;1.00
15450;DHT22;7826;49.784;9.934;2023-05-07T03:49:42;8.60;1.00
15450;DHT22;7826;49.784;9.934;2023-05-07T03:52:08;8.50;1.00
15450;DHT22;7826;49.784;9.934;2023-05-07T03:54:34;8.60;1.00
15450;DHT22;7826;49.784;9.934;2023-05-07T03:57:01;8.60;1.00
15450;DHT22;7826;49.784;9.934;2023-05-07T03:59:27;8.50;1.00
15450;DHT22;7826;49.784;9.934;2023-05-07T04:01:54;8.40;1.00
15450;DHT22;7826;49.784;9.934;2023-05-07T04:04:20;8.40;1.00
15450;DHT22;7826;49.784;9.934;2023-05-07T04:06:47;8.50;1.00
15450;DHT22;7826;49.784;9.934;2023-05-07T04:09:13;8.50;1.00
15450;DHT22;7826;49.784;9.934;2023-05-07T04:11:40;8.50;1.00
15450;DHT22;7826;49.784;9.934;2023-05-07T04:14:06;8.50;1.00
15450;DHT22;7826;49.784;9.934;2023-05-07T04:16:34;8.50;1.00
15450;DHT22;7826;49.784;9.934;2023-05-07T04:19:01;8.60;1.00
15450;DHT22;7826;49.784;9.934;2023-05-07T04:21:27;8.60;1.00
15450;DHT22;7826;49.784;9.934;2023-05-07T04:23:53;8.60;1.00
15450;DHT22;7826;49.784;9.934;2023-05-07T04:26:19;8.60;1.00
15450;DHT22;7826;49.784;9.934;2023-05-07T04:28:47;8.50;1.00
15450;DHT22;7826;49.784;9.934;2023-05-07T04:31:13;8.50;1.00
15450;DHT22;7826;49.784;9.934;2023-05-07T04:33:39;8.50;1.00
15450;DHT22;7826;49.784;9.934;2023-05-07T04:36:06;8.50;1.00
15450;DHT22;7826;49.784;9.934;2023-05-07T04:38:32;8.60;1.00
15450;DHT22;7826;49.784;9.934;2023-05-07T04:41:03;8.50;1.00
15450;DHT22;7826;49.784;9.934;2023-05-07T04:43:30;8.50;1.00
15450;DHT22;7826;49.784;9.934;2023-05-07T04:45:56;8.50;1.00
15450;DHT22;7826;49.784;9.934;2023-05-07T04:48:22;8.50;1.00
15450;DHT22;7826;49.784;9.934;2023-05-07T04:50:49;8.50;1.00
15450;DHT22;7826;49.784;9.934;2023-05-07T04:53:16;8.40;1.00
15450;DHT22;7826;49.784;9.934;2023-05-07T04:55:43;8.60;1.00
15450;DHT22;7826;49.784;9.934;2023-05-07T04:58:09;8.50;1.00
15450;DHT22;7826;49.784;9.934;2023-05-07T05:00:36;8.50;1.00
15450;DHT22;7826;49.784;9.934;2023-05-07T05:03:02;8.50;1.00
15450;DHT22;7826;49.784;9.934;2023-05-07T05:05:29;8.50;1.00
15450;DHT22;7826;49.784;9.934;2023-05-07T05:07:55;8.30;1.00
15450;DHT22;7826;49.784;9.934;2023-05-07T05:10:22;8.30;1.00
15450;DHT22;7826;49.784;9.934;2023-05-07T05:12:48;8.30;1.00
15450;DHT22;7826;49.784;9.934;2023-05-07T05:15:14;8.30;1.00
15450;DHT22;7826;49.784;9.934;2023-05-07T05:17:41;8.40;1.00
15450;DHT22;7826;49.784;9.934;2023-05-07T05:20:07;8.40;1.00
15450;DHT22;7826;49.784;9.934;2023-05-07T05:22:35;8.40;1.00
15450;DHT22;7826;49.784;9.934;2023-05-07T05:25:02;8.40;1.00
15450;DHT22;7826;49.784;9.934;2023-05-07T05:27:29;8.40;1.00
15450;DHT22;7826;49.784;9.934;2023-05-07T05:29:55;8.40;1.00
15450;DHT22;7826;49.784;9.934;2023-05-07T05:32:22;8.50;1.00
15450;DHT22;7826;49.784;9.934;2023-05-07T05:34:48;8.50;1.00
15450;DHT22;7826;49.784;9.934;2023-05-07T05:37:14;8.50;99.90
15450;DHT22;7826;49.784;9.934;2023-05-07T05:39:40;8.40;1.00
15450;DHT22;7826;49.784;9.934;2023-05-07T05:42:07;8.30;1.00
15450;DHT22;7826;49.784;9.934;2023-05-07T05:44:33;8.50;1.00
15450;DHT22;7826;49.784;9.934;2023-05-07T05:46:59;8.40;1.00
15450;DHT22;7826;49.784;9.934;2023-05-07T05:49:26;8.40;1.00
15450;DHT22;7826;49.784;9.934;2023-05-07T05:51:52;8.40;1.00
15450;DHT22;7826;49.784;9.934;2023-05-07T05:54:18;8.50;1.00
15450;DHT22;7826;49.784;9.934;2023-05-07T05:56:44;8.50;1.00
15450;DHT22;7826;49.784;9.934;2023-05-07T05:59:11;8.50;1.00
15450;DHT22;7826;49.784;9.934;2023-05-07T06:01:37;8.50;1.00
15450;DHT22;7826;49.784;9.934;2023-05-07T06:04:04;8.70;1.00
15450;DHT22;7826;49.784;9.934;2023-05-07T06:06:30;8.80;99.90
15450;DHT22;7826;49.784;9.934;2023-05-07T06:08:57;8.90;99.90
15450;DHT22;7826;49.784;9.934;2023-05-07T06:11:24;8.90;99.90
15450;DHT22;7826;49.784;9.934;2023-05-07T06:13:51;8.90;99.90
15450;DHT22;7826;49.784;9.934;2023-05-07T06:16:17;8.90;99.90
15450;DHT22;7826;49.784;9.934;2023-05-07T06:18:43;8.90;1.00
15450;DHT22;7826;49.784;9.934;2023-05-07T06:21:13;8.80;1.00
15450;DHT22;7826;49.784;9.934;2023-05-07T06:23:40;8.80;83.50
15450;DHT22;7826;49.784;9.934;2023-05-07T06:26:07;8.80;1.00
15450;DHT22;7826;49.784;9.934;2023-05-07T06:28:33;8.90;1.00
15450;DHT22;7826;49.784;9.934;2023-05-07T06:31:16;8.90;1.00
15450;DHT22;7826;49.784;9.934;2023-05-07T06:33:44;9.00;1.00
15450;DHT22;7826;49.784;9.934;2023-05-07T06:36:10;9.10;1.00
15450;DHT22;7826;49.784;9.934;2023-05-07T06:38:36;9.20;1.00
15450;DHT22;7826;49.784;9.934;2023-05-07T06:41:03;9.20;1.00
15450;DHT22;7826;49.784;9.934;2023-05-07T06:43:29;9.30;99.90
15450;DHT22;7826;49.784;9.934;2023-05-07T06:45:55;9.40;1.00
15450;DHT22;7826;49.784;9.934;2023-05-07T06:48:21;9.40;99.90
15450;DHT22;7826;49.784;9.934;2023-05-07T06:50:48;9.70;99.90
15450;DHT22;7826;49.784;9.934;2023-05-07T06:53:14;10.00;1.00
15450;DHT22;7826;49.784;9.934;2023-05-07T06:55:40;9.90;1.00
15450;DHT22;7826;49.784;9.934;2023-05-07T06:58:07;10.10;1.00
15450;DHT22;7826;49.784;9.934;2023-05-07T07:00:34;10.10;99.90
15450;DHT22;7826;49.784;9.934;2023-05-07T07:03:01;10.20;99.90
15450;DHT22;7826;49.784;9.934;2023-05-07T07:05:27;10.10;1.00
15450;DHT22;7826;49.784;9.934;2023-05-07T07:07:53;10.00;1.00
15450;DHT22;7826;49.784;9.934;2023-05-07T07:10:20;10.00;99.90
15450;DHT22;7826;49.784;9.934;2023-05-07T07:12:46;10.10;1.00
15450;DHT22;7826;49.784;9.934;2023-05-07T07:15:16;9.90;99.90
15450;DHT22;7826;49.784;9.934;2023-05-07T07:17:42;9.70;1.00
15450;DHT22;7826;49.784;9.934;2023-05-07T07:20:09;9.80;1.00
15450;DHT22;7826;49.784;9.934;2023-05-07T07:22:35;9.70;1.00
15450;DHT22;7826;49.784;9.934;2023-05-07T07:25:02;9.70;1.00
15450;DHT22;7826;49.784;9.934;2023-05-07T07:27:28;9.70;1.00
15450;DHT22;7826;49.784;9.934;2023-05-07T07:29:54;9.70;1.00
15450;DHT22;7826;49.784;9.934;2023-05-07T07:32:20;9.70;1.00
15450;DHT22;7826;49.784;9.934;2023-05-07T07:34:46;9.70;1.00
15450;DHT22;7826;49.784;9.934;2023-05-07T07:37:12;9.70;1.00
15450;DHT22;7826;49.784;9.934;2023-05-07T07:39:39;9.80;1.00
15450;DHT22;7826;49.784;9.934;2023-05-07T07:42:05;9.70;1.00
15450;DHT22;7826;49.784;9.934;2023-05-07T07:44:32;9.80;1.00
15450;DHT22;7826;49.784;9.934;2023-05-07T07:46:58;9.80;1.00
15450;DHT22;7826;49.784;9.934;2023-05-07T07:49:24;9.90;1.00
15450;DHT22;7826;49.784;9.934;2023-05-07T07:51:50;10.10;1.00
15450;DHT22;7826;49.784;9.934;2023-05-07T07:54:17;9.90;99.90
15450;DHT22;7826;49.784;9.934;2023-05-07T07:56:43;9.90;99.90
15450;DHT22;7826;49.784;9.934;2023-05-07T07:59:09;9.90;99.90
15450;DHT22;7826;49.784;9.934;2023-05-07T08:01:36;9.90;99.90
15450;DHT22;7826;49.784;9.934;2023-05-07T08:04:02;9.90;99.90
15450;DHT22;7826;49.784;9.934;2023-05-07T08:06:29;10.00;99.90
15450;DHT22;7826;49.784;9.934;2023-05-07T08:08:55;10.00;99.90
15450;DHT22;7826;49.784;9.934;2023-05-07T08:11:22;10.20;99.90
15450;DHT22;7826;49.784;9.934;2023-05-07T08:13:48;10.30;99.90
15450;DHT22;7826;49.784;9.934;2023-05-07T08:16:14;10.40;99.90
15450;DHT22;7826;49.784;9.934;2023-05-07T08:18:41;10.60;99.90
15450;DHT22;7826;49.784;9.934;2023-05-07T08:21:08;10.80;99.90
15450;DHT22;7826;49.784;9.934;2023-05-07T08:23:34;11.00;99.90
15450;DHT22;7826;49.784;9.934;2023-05-07T08:26:01;11.20;99.90
15450;DHT22;7826;49.784;9.934;2023-05-07T08:28:27;11.30;99.90
15450;DHT22;7826;49.784;9.934;2023-05-07T08:30:53;11.90;99.90
15450;DHT22;7826;49.784;9.934;2023-05-07T08:33:19;11.80;34.50
15450;DHT22;7826;49.784;9.934;2023-05-07T08:35:46;11.70;30.20
15450;DHT22;7826;49.784;9.934;2023-05-07T08:38:12;11.80;49.20
15450;DHT22;7826;49.784;9.934;2023-05-07T08:40:39;11.80;37.20
15450;DHT22;7826;49.784;9.934;2023-05-07T08:43:07;11.80;41.30
15450;DHT22;7826;49.784;9.934;2023-05-07T08:45:34;11.70;48.60
15450;DHT22;7826;49.784;9.934;2023-05-07T08:48:03;11.70;44.00
15450;DHT22;7826;49.784;9.934;2023-05-07T08:50:31;11.70;43.30
15450;DHT22;7826;49.784;9.934;2023-05-07T08:52:57;11.90;53.10
15450;DHT22;7826;49.784;9.934;2023-05-07T08:55:24;12.20;22.90
15450;DHT22;7826;49.784;9.934;2023-05-07T08:57:50;12.40;49.80
15450;DHT22;7826;49.784;9.934;2023-05-07T09:00:18;12.40;37.70
15450;DHT22;7826;49.784;9.934;2023-05-07T09:02:44;12.30;25.40
15450;DHT22;7826;49.784;9.934;2023-05-07T09:05:11;12.30;18.00
15450;DHT22;7826;49.784;9.934;2023-05-07T09:07:37;12.40;1.00
15450;DHT22;7826;49.784;9.934;2023-05-07T09:10:04;12.50;12.30
15450;DHT22;7826;49.784;9.934;2023-05-07T09:12:32;12.60;1.20
15450;DHT22;7826;49.784;9.934;2023-05-07T09:14:59;12.70;1.00
15450;DHT22;7826;49.784;9.934;2023-05-07T09:17:25;12.90;11.10
15450;DHT22;7826;49.784;9.934;2023-05-07T09:19:51;12.90;1.00
15450;DHT22;7826;49.784;9.934;2023-05-07T09:22:19;13.10;1.00
15450;DHT22;7826;49.784;9.934;2023-05-07T09:24:50;13.60;1.00
15450;DHT22;7826;49.784;9.934;2023-05-07T09:27:17;13.50;1.00
15450;DHT22;7826;49.784;9.934;2023-05-07T09:29:44;13.40;1.00
15450;DHT22;7826;49.784;9.934;2023-05-07T09:32:11;13.20;1.00
15450;DHT22;7826;49.784;9.934;2023-05-07T09:34:37;13.20;1.00
15450;DHT22;7826;49.784;9.934;2023-05-07T09:37:05;13.30;1.00
15450;DHT22;7826;49.784;9.934;2023-05-07T09:39:49;13.60;1.00
15450;DHT22;7826;49.784;9.934;2023-05-07T09:42:15;13.60;1.00
15450;DHT22;7826;49.784;9.934;2023-05-07T09:44:43;13.80;1.00
15450;DHT22;7826;49.784;9.934;2023-05-07T09:47:10;13.80;1.00
15450;DHT22;7826;49.784;9.934;2023-05-07T09:49:39;14.10;1.00
15450;DHT22;7826;49.784;9.934;2023-05-07T09:52:08;13.90;1.00
15450;DHT22;7826;49.784;9.934;2023-05-07T09:54:37;13.70;1.00
15450;DHT22;7826;49.784;9.934;2023-05-07T09:57:11;13.80;1.00
15450;DHT22;7826;49.784;9.934;2023-05-07T09:59:38;13.60;1.00
15450;DHT22;7826;49.784;9.934;2023-05-07T10:02:05;13.60;1.00
15450;DHT22;7826;49.784;9.934;2023-05-07T10:04:32;13.60;1.00
15450;DHT22;7826;49.784;9.934;2023-05-07T10:06:59;13.60;1.00
15450;DHT22;7826;49.784;9.934;2023-05-07T10:09:26;13.70;1.00
15450;DHT22;7826;49.784;9.934;2023-05-07T10:11:53;13.20;1.00
15450;DHT22;7826;49.784;9.934;2023-05-07T10:14:21;13.30;1.00
15450;DHT22;7826;49.784;9.934;2023-05-07T10:16:48;13.30;1.00
15450;DHT22;7826;49.784;9.934;2023-05-07T10:19:14;13.10;1.00
15450;DHT22;7826;49.784;9.934;2023-05-07T10:21:50;13.60;1.00
15450;DHT22;7826;49.784;9.934;2023-05-07T10:24:22;13.20;1.00
15450;DHT22;7826;49.784;9.934;2023-05-07T10:26:52;13.20;1.00
15450;DHT22;7826;49.784;9.934;2023-05-07T10:34:47;13.20;1.00
15450;DHT22;7826;49.784;9.934;2023-05-07T10:37:15;13.20;1.00
15450;DHT22;7826;49.784;9.934;2023-05-07T10:39:41;13.20;1.00
15450;DHT22;7826;49.784;9.934;2023-05-07T10:42:12;13.20;1.00
15450;DHT22;7826;49.784;9.934;2023-05-07T10:44:39;13.40;1.00
15450;DHT22;7826;49.784;9.934;2023-05-07T10:47:13;13.50;1.00
15450;DHT22;7826;49.784;9.934;2023-05-07T10:52:23;13.50;1.00
15450;DHT22;7826;49.784;9.934;2023-05-07T10:57:43;13.50;1.00
15450;DHT22;7826;49.784;9.934;2023-05-07T11:05:28;15.00;1.00
15450;DHT22;7826;49.784;9.934;2023-05-07T11:08:03;15.40;1.00
15450;DHT22;7826;49.784;9.934;2023-05-07T11:13:15;15.10;1.00
15450;DHT22;7826;49.784;9.934;2023-05-07T11:15:46;14.90;1.00
15450;DHT22;7826;49.784;9.934;2023-05-07T11:18:15;15.10;1.00
15450;DHT22;7826;49.784;9.934;2023-05-07T11:20:52;14.80;1.00
15450;DHT22;7826;49.784;9.934;2023-05-07T11:26:05;14.60;1.00
15450;DHT22;7826;49.784;9.934;2023-05-07T11:28:37;14.70;1.00
15450;DHT22;7826;49.784;9.934;2023-05-07T11:31:04;14.60;1.00
15450;DHT22;7826;49.784;9.934;2023-05-07T11:33:31;14.50;1.00
15450;DHT22;7826;49.784;9.934;2023-05-07T11:35:58;14.50;1.00
15450;DHT22;7826;49.784;9.934;2023-05-07T11:38:25;14.70;1.00
15450;DHT22;7826;49.784;9.934;2023-05-07T11:40:53;14.90;1.00
15450;DHT22;7826;49.784;9.934;2023-05-07T11:43:19;15.10;1.00
15450;DHT22;7826;49.784;9.934;2023-05-07T11:45:47;15.40;1.00
15450;DHT22;7826;49.784;9.934;2023-05-07T11:48:14;15.70;1.00
15450;DHT22;7826;49.784;9.934;2023-05-07T11:53:19;15.80;1.00
15450;DHT22;7826;49.784;9.934;2023-05-07T11:55:46;16.10;1.00
15450;DHT22;7826;49.784;9.934;2023-05-07T11:58:15;15.90;1.00
15450;DHT22;7826;49.784;9.934;2023-05-07T12:00:50;15.70;1.00
15450;DHT22;7826;49.784;9.934;2023-05-07T12:03:16;15.40;1.00
15450;DHT22;7826;49.784;9.934;2023-05-07T12:05:47;15.80;1.00
15450;DHT22;7826;49.784;9.934;2023-05-07T12:08:14;15.80;1.00
15450;DHT22;7826;49.784;9.934;2023-05-07T12:10:42;16.40;1.00
15450;DHT22;7826;49.784;9.934;2023-05-07T12:13:18;16.40;1.00
15450;DHT22;7826;49.784;9.934;2023-05-07T12:15:45;16.30;1.00
15450;DHT22;7826;49.784;9.934;2023-05-07T12:18:12;16.50;1.00
15450;DHT22;7826;49.784;9.934;2023-05-07T12:20:39;16.20;1.00
15450;DHT22;7826;49.784;9.934;2023-05-07T12:23:05;16.40;1.00
15450;DHT22;7826;49.784;9.934;2023-05-07T12:25:35;16.20;1.00
15450;DHT22;7826;49.784;9.934;2023-05-07T12:28:02;15.60;1.00
15450;DHT22;7826;49.784;9.934;2023-05-07T12:30:40;15.90;1.00
15450;DHT22;7826;49.784;9.934;2023-05-07T12:33:07;15.70;1.00
15450;DHT22;7826;49.784;9.934;2023-05-07T12:35:42;15.80;1.00
15450;DHT22;7826;49.784;9.934;2023-05-07T12:38:10;15.70;1.00
15450;DHT22;7826;49.784;9.934;2023-05-07T12:40:39;15.60;1.00
15450;DHT22;7826;49.784;9.934;2023-05-07T12:43:05;15.90;1.00
15450;DHT22;7826;49.784;9.934;2023-05-07T12:45:37;16.40;1.00
15450;DHT22;7826;49.784;9.934;2023-05-07T12:48:04;16.50;1.00
15450;DHT22;7826;49.784;9.934;2023-05-07T12:50:32;16.50;1.00
15450;DHT22;7826;49.784;9.934;2023-05-07T12:52:59;16.30;1.00
15450;DHT22;7826;49.784;9.934;2023-05-07T12:55:25;16.40;1.00
15450;DHT22;7826;49.784;9.934;2023-05-07T12:57:53;16.60;1.00
15450;DHT22;7826;49.784;9.934;2023-05-07T13:00:36;16.70;1.00
15450;DHT22;7826;49.784;9.934;2023-05-07T13:03:03;16.70;1.00
15450;DHT22;7826;49.784;9.934;2023-05-07T13:05:29;17.00;1.00
15450;DHT22;7826;49.784;9.934;2023-05-07T13:07:56;17.10;1.00
15450;DHT22;7826;49.784;9.934;2023-05-07T13:10:23;17.30;1.00
15450;DHT22;7826;49.784;9.934;2023-05-07T13:12:50;17.10;1.00
15450;DHT22;7826;49.784;9.934;2023-05-07T13:15:16;17.50;1.00
15450;DHT22;7826;49.784;9.934;2023-05-07T13:17:43;17.20;1.00
15450;DHT22;7826;49.784;9.934;2023-05-07T13:20:10;16.80;1.00
15450;DHT22;7826;49.784;9.934;2023-05-07T13:22:37;16.60;1.00
15450;DHT22;7826;49.784;9.934;2023-05-07T13:25:04;16.20;1.00
15450;DHT22;7826;49.784;9.934;2023-05-07T13:27:30;15.80;1.00
15450;DHT22;7826;49.784;9.934;2023-05-07T13:29:57;15.50;1.00
15450;DHT22;7826;49.784;9.934;2023-05-07T13:32:23;15.20;1.00
15450;DHT22;7826;49.784;9.934;2023-05-07T13:34:49;15.30;1.00
15450;DHT22;7826;49.784;9.934;2023-05-07T13:37:16;15.60;1.00
15450;DHT22;7826;49.784;9.934;2023-05-07T13:39:42;15.80;1.00
15450;DHT22;7826;49.784;9.934;2023-05-07T13:42:08;15.60;1.00
15450;DHT22;7826;49.784;9.934;2023-05-07T13:44:34;15.30;1.00
15450;DHT22;7826;49.784;9.934;2023-05-07T13:47:01;15.10;1.00
15450;DHT22;7826;49.784;9.934;2023-05-07T13:49:27;15.40;1.00
15450;DHT22;7826;49.784;9.934;2023-05-07T13:51:54;15.60;1.00
15450;DHT22;7826;49.784;9.934;2023-05-07T13:54:20;15.70;1.00
15450;DHT22;7826;49.784;9.934;2023-05-07T13:56:46;16.00;1.00
15450;DHT22;7826;49.784;9.934;2023-05-07T13:59:13;15.90;1.00
15450;DHT22;7826;49.784;9.934;2023-05-07T14:01:40;16.10;1.00
15450;DHT22;7826;49.784;9.934;2023-05-07T14:04:07;16.00;1.00
15450;DHT22;7826;49.784;9.934;2023-05-07T14:06:33;15.90;1.00
15450;DHT22;7826;49.784;9.934;2023-05-07T14:09:00;15.60;1.00
15450;DHT22;7826;49.784;9.934;2023-05-07T14:11:26;15.60;1.00
15450;DHT22;7826;49.784;9.934;2023-05-07T14:13:52;15.50;1.00
15450;DHT22;7826;49.784;9.934;2023-05-07T14:16:18;15.30;1.00
15450;DHT22;7826;49.784;9.934;2023-05-07T14:18:45;15.40;1.00
15450;DHT22;7826;49.784;9.934;2023-05-07T14:21:11;15.40;1.00
15450;DHT22;7826;49.784;9.934;2023-05-07T14:23:37;15.40;1.00
15450;DHT22;7826;49.784;9.934;2023-05-07T14:26:03;15.30;1.00
15450;DHT22;7826;49.784;9.934;2023-05-07T14:28:30;15.30;1.00
15450;DHT22;7826;49.784;9.934;2023-05-07T14:30:56;15.00;1.00
15450;DHT22;7826;49.784;9.934;2023-05-07T14:33:22;14.80;1.00
15450;DHT22;7826;49.784;9.934;2023-05-07T14:35:48;14.70;1.00
15450;DHT22;7826;49.784;9.934;2023-05-07T14:38:16;15.10;1.00
15450;DHT22;7826;49.784;9.934;2023-05-07T14:40:42;15.30;1.00
15450;DHT22;7826;49.784;9.934;2023-05-07T14:43:08;15.50;1.00
15450;DHT22;7826;49.784;9.934;2023-05-07T14:45:34;15.90;1.00
15450;DHT22;7826;49.784;9.934;2023-05-07T14:48:01;16.00;1.00
15450;DHT22;7826;49.784;9.934;2023-05-07T14:50:27;16.10;1.00
15450;DHT22;7826;49.784;9.934;2023-05-07T14:52:53;15.80;1.00
15450;DHT22;7826;49.784;9.934;2023-05-07T14:55:19;15.60;1.00
15450;DHT22;7826;49.784;9.934;2023-05-07T14:57:46;15.60;1.00
15450;DHT22;7826;49.784;9.934;2023-05-07T15:00:12;15.50;1.00
15450;DHT22;7826;49.784;9.934;2023-05-07T15:02:39;15.30;1.00
15450;DHT22;7826;49.784;9.934;2023-05-07T15:05:06;15.20;1.00
15450;DHT22;7826;49.784;9.934;2023-05-07T15:07:32;15.30;1.00
15450;DHT22;7826;49.784;9.934;2023-05-07T15:10:00;15.40;1.00
15450;DHT22;7826;49.784;9.934;2023-05-07T15:12:26;15.50;1.00
15450;DHT22;7826;49.784;9.934;2023-05-07T15:14:52;15.70;1.00
15450;DHT22;7826;49.784;9.934;2023-05-07T15:17:19;15.80;1.00
15450;DHT22;7826;49.784;9.934;2023-05-07T15:19:45;15.80;1.00
15450;DHT22;7826;49.784;9.934;2023-05-07T15:22:11;15.80;1.00
15450;DHT22;7826;49.784;9.934;2023-05-07T15:24:38;15.80;1.00
15450;DHT22;7826;49.784;9.934;2023-05-07T15:27:04;15.60;1.00
15450;DHT22;7826;49.784;9.934;2023-05-07T15:29:30;15.50;1.00
15450;DHT22;7826;49.784;9.934;2023-05-07T15:31:57;15.30;1.00
15450;DHT22;7826;49.784;9.934;2023-05-07T15:34:23;15.20;1.00
15450;DHT22;7826;49.784;9.934;2023-05-07T15:36:54;15.20;1.00
15450;DHT22;7826;49.784;9.934;2023-05-07T15:39:21;15.20;1.00
15450;DHT22;7826;49.784;9.934;2023-05-07T15:41:47;14.90;1.00
15450;DHT22;7826;49.784;9.934;2023-05-07T15:44:13;14.90;1.00
15450;DHT22;7826;49.784;9.934;2023-05-07T15:46:39;15.10;1.00
15450;DHT22;7826;49.784;9.934;2023-05-07T15:49:05;15.10;1.00
15450;DHT22;7826;49.784;9.934;2023-05-07T15:51:35;15.20;1.00
15450;DHT22;7826;49.784;9.934;2023-05-07T15:54:01;15.00;1.00
15450;DHT22;7826;49.784;9.934;2023-05-07T15:56:28;15.10;1.00
15450;DHT22;7826;49.784;9.934;2023-05-07T15:58:54;15.30;1.00
15450;DHT22;7826;49.784;9.934;2023-05-07T16:01:20;15.40;1.00
15450;DHT22;7826;49.784;9.934;2023-05-07T16:03:47;15.30;1.00
15450;DHT22;7826;49.784;9.934;2023-05-07T16:06:13;15.20;1.00
15450;DHT22;7826;49.784;9.934;2023-05-07T16:08:39;15.00;1.00
15450;DHT22;7826;49.784;9.934;2023-05-07T16:11:06;15.10;1.00
15450;DHT22;7826;49.784;9.934;2023-05-07T16:13:34;15.00;1.00
15450;DHT22;7826;49.784;9.934;2023-05-07T16:16:00;15.00;1.00
15450;DHT22;7826;49.784;9.934;2023-05-07T16:18:26;15.00;1.00
15450;DHT22;7826;49.784;9.934;2023-05-07T16:20:53;15.00;1.00
15450;DHT22;7826;49.784;9.934;2023-05-07T16:23:19;15.00;1.00
15450;DHT22;7826;49.784;9.934;2023-05-07T16:25:46;15.00;1.00
15450;DHT22;7826;49.784;9.934;2023-05-07T16:28:13;14.80;1.00